Terminal Aerodrome Forecast
Issued by NWS

Home | Current Version | Previous Version | Text Only | Print | Product List | Glossary On
Versions: 1 2 3 4 5 6 7 8 9 10 11 12 13
941
FTUS42 KILM 212336
TAFCRE
TAF
KCRE 212336Z 2200/2224 04003KT P6SM VCTS FEW025CB SCT040 BKN080
     FM220200 03002KT P6SM SCT120 BKN250
      TEMPO 2208/2212 00000KT 2SM BR SCT009
     FM221300 06004KT P6SM SCT045
     FM221800 13009KT P6SM SKC=

USA.gov is the U.S. government's official web portal to all federal, state and local government web resources and services.